sensor_id;sensor_type;location;lat;lon;timestamp;temperature;humidity
13310;DHT22;6723;48.256;16.402;2022-07-29T00:00:44;22.20;89.70
13310;DHT22;6723;48.256;16.402;2022-07-29T00:03:12;22.10;89.80
13310;DHT22;6723;48.256;16.402;2022-07-29T00:05:41;22.10;90.00
13310;DHT22;6723;48.256;16.402;2022-07-29T00:08:09;22.10;90.10
13310;DHT22;6723;48.256;16.402;2022-07-29T00:10:35;22.00;90.40
13310;DHT22;6723;48.256;16.402;2022-07-29T00:13:02;22.00;90.60
13310;DHT22;6723;48.256;16.402;2022-07-29T00:15:28;22.00;91.00
13310;DHT22;6723;48.256;16.402;2022-07-29T00:17:53;21.90;90.90
13310;DHT22;6723;48.256;16.402;2022-07-29T00:20:19;21.90;91.00
13310;DHT22;6723;48.256;16.402;2022-07-29T00:22:45;21.90;91.60
13310;DHT22;6723;48.256;16.402;2022-07-29T00:25:12;21.90;91.60
13310;DHT22;6723;48.256;16.402;2022-07-29T00:27:38;21.90;91.70
13310;DHT22;6723;48.256;16.402;2022-07-29T00:30:05;21.90;92.00
13310;DHT22;6723;48.256;16.402;2022-07-29T00:32:31;21.90;92.00
13310;DHT22;6723;48.256;16.402;2022-07-29T00:34:57;21.90;91.90
13310;DHT22;6723;48.256;16.402;2022-07-29T00:37:41;21.90;92.00
13310;DHT22;6723;48.256;16.402;2022-07-29T00:40:08;21.80;92.20
13310;DHT22;6723;48.256;16.402;2022-07-29T00:42:48;21.80;92.20
13310;DHT22;6723;48.256;16.402;2022-07-29T00:45:15;21.80;92.60
13310;DHT22;6723;48.256;16.402;2022-07-29T00:47:42;21.80;93.00
13310;DHT22;6723;48.256;16.402;2022-07-29T00:50:10;21.70;93.20
13310;DHT22;6723;48.256;16.402;2022-07-29T00:52:38;21.70;93.30
13310;DHT22;6723;48.256;16.402;2022-07-29T00:55:07;21.70;93.40
13310;DHT22;6723;48.256;16.402;2022-07-29T00:57:34;21.70;93.50
13310;DHT22;6723;48.256;16.402;2022-07-29T01:00:01;21.70;93.60
13310;DHT22;6723;48.256;16.402;2022-07-29T01:02:26;21.60;93.70
13310;DHT22;6723;48.256;16.402;2022-07-29T01:04:53;21.60;94.00
13310;DHT22;6723;48.256;16.402;2022-07-29T01:07:19;21.60;94.10
13310;DHT22;6723;48.256;16.402;2022-07-29T01:09:46;21.60;94.50
13310;DHT22;6723;48.256;16.402;2022-07-29T01:12:17;21.50;94.40
13310;DHT22;6723;48.256;16.402;2022-07-29T01:14:44;21.50;94.70
13310;DHT22;6723;48.256;16.402;2022-07-29T01:17:17;21.40;95.20
13310;DHT22;6723;48.256;16.402;2022-07-29T01:30:44;21.30;96.70
13310;DHT22;6723;48.256;16.402;2022-07-29T01:33:13;21.30;96.80
13310;DHT22;6723;48.256;16.402;2022-07-29T01:36:10;21.30;96.90
13310;DHT22;6723;48.256;16.402;2022-07-29T01:38:39;21.30;97.10
13310;DHT22;6723;48.256;16.402;2022-07-29T01:41:10;21.30;97.30
13310;DHT22;6723;48.256;16.402;2022-07-29T01:46:13;21.20;96.90
13310;DHT22;6723;48.256;16.402;2022-07-29T01:48:40;21.20;97.20
13310;DHT22;6723;48.256;16.402;2022-07-29T01:51:17;21.20;97.50
13310;DHT22;6723;48.256;16.402;2022-07-29T01:54:08;21.20;97.60
13310;DHT22;6723;48.256;16.402;2022-07-29T01:56:38;21.20;97.80
13310;DHT22;6723;48.256;16.402;2022-07-29T01:59:06;21.20;97.80
13310;DHT22;6723;48.256;16.402;2022-07-29T02:01:34;21.10;98.20
13310;DHT22;6723;48.256;16.402;2022-07-29T02:04:03;21.10;98.30
13310;DHT22;6723;48.256;16.402;2022-07-29T02:06:32;21.10;98.50
13310;DHT22;6723;48.256;16.402;2022-07-29T02:09:00;21.00;98.70
13310;DHT22;6723;48.256;16.402;2022-07-29T02:11:27;21.00;99.00
13310;DHT22;6723;48.256;16.402;2022-07-29T02:13:56;21.00;99.40
13310;DHT22;6723;48.256;16.402;2022-07-29T02:16:24;20.90;99.70
13310;DHT22;6723;48.256;16.402;2022-07-29T02:18:54;20.90;99.90
13310;DHT22;6723;48.256;16.402;2022-07-29T02:21:24;21.00;99.90
13310;DHT22;6723;48.256;16.402;2022-07-29T02:23:52;20.90;99.90
13310;DHT22;6723;48.256;16.402;2022-07-29T02:26:20;20.90;99.90
13310;DHT22;6723;48.256;16.402;2022-07-29T02:28:51;20.80;99.90
13310;DHT22;6723;48.256;16.402;2022-07-29T02:31:21;20.80;99.90
13310;DHT22;6723;48.256;16.402;2022-07-29T02:33:48;20.80;99.90
13310;DHT22;6723;48.256;16.402;2022-07-29T02:36:16;20.70;99.90
13310;DHT22;6723;48.256;16.402;2022-07-29T02:38:43;20.70;99.90
13310;DHT22;6723;48.256;16.402;2022-07-29T02:41:33;20.70;99.90
13310;DHT22;6723;48.256;16.402;2022-07-29T02:44:09;20.60;99.90
13310;DHT22;6723;48.256;16.402;2022-07-29T02:46:38;20.60;99.90
13310;DHT22;6723;48.256;16.402;2022-07-29T02:49:18;20.60;99.90
13310;DHT22;6723;48.256;16.402;2022-07-29T02:51:53;20.60;99.90
13310;DHT22;6723;48.256;16.402;2022-07-29T02:54:41;20.60;99.90
13310;DHT22;6723;48.256;16.402;2022-07-29T02:57:39;20.50;99.90
13310;DHT22;6723;48.256;16.402;2022-07-29T03:00:08;20.50;99.90
13310;DHT22;6723;48.256;16.402;2022-07-29T03:02:42;20.50;99.90
13310;DHT22;6723;48.256;16.402;2022-07-29T03:05:13;20.50;99.90
13310;DHT22;6723;48.256;16.402;2022-07-29T03:07:43;20.50;99.90
13310;DHT22;6723;48.256;16.402;2022-07-29T03:10:10;20.40;99.90
13310;DHT22;6723;48.256;16.402;2022-07-29T03:12:37;20.40;99.90
13310;DHT22;6723;48.256;16.402;2022-07-29T03:15:04;20.40;99.90
13310;DHT22;6723;48.256;16.402;2022-07-29T03:17:32;20.30;99.90
13310;DHT22;6723;48.256;16.402;2022-07-29T03:19:59;20.30;99.90
13310;DHT22;6723;48.256;16.402;2022-07-29T03:22:25;20.30;99.90
13310;DHT22;6723;48.256;16.402;2022-07-29T03:24:51;20.20;99.90
13310;DHT22;6723;48.256;16.402;2022-07-29T03:27:17;20.20;99.90
13310;DHT22;6723;48.256;16.402;2022-07-29T03:29:43;20.30;99.90
13310;DHT22;6723;48.256;16.402;2022-07-29T03:32:08;20.30;99.90
13310;DHT22;6723;48.256;16.402;2022-07-29T03:34:36;20.20;99.90
13310;DHT22;6723;48.256;16.402;2022-07-29T03:37:02;20.20;99.90
13310;DHT22;6723;48.256;16.402;2022-07-29T03:39:33;20.30;99.90
13310;DHT22;6723;48.256;16.402;2022-07-29T03:42:01;20.30;99.90
13310;DHT22;6723;48.256;16.402;2022-07-29T03:44:28;20.30;99.90
13310;DHT22;6723;48.256;16.402;2022-07-29T03:46:57;20.20;99.90
13310;DHT22;6723;48.256;16.402;2022-07-29T03:49:26;20.20;99.90
13310;DHT22;6723;48.256;16.402;2022-07-29T03:51:53;20.30;99.90
13310;DHT22;6723;48.256;16.402;2022-07-29T03:54:18;20.30;99.90
13310;DHT22;6723;48.256;16.402;2022-07-29T03:56:46;20.30;99.90
13310;DHT22;6723;48.256;16.402;2022-07-29T03:59:14;20.30;99.90
13310;DHT22;6723;48.256;16.402;2022-07-29T04:01:41;20.30;99.90
13310;DHT22;6723;48.256;16.402;2022-07-29T04:04:08;20.30;99.90
13310;DHT22;6723;48.256;16.402;2022-07-29T04:06:45;20.40;99.90
13310;DHT22;6723;48.256;16.402;2022-07-29T04:09:11;20.40;99.90
13310;DHT22;6723;48.256;16.402;2022-07-29T04:11:39;20.40;99.90
13310;DHT22;6723;48.256;16.402;2022-07-29T04:14:05;20.50;99.90
13310;DHT22;6723;48.256;16.402;2022-07-29T04:16:32;20.50;99.90
13310;DHT22;6723;48.256;16.402;2022-07-29T04:18:57;20.60;99.90
13310;DHT22;6723;48.256;16.402;2022-07-29T04:21:23;20.60;99.90
13310;DHT22;6723;48.256;16.402;2022-07-29T04:23:49;20.80;99.90
13310;DHT22;6723;48.256;16.402;2022-07-29T04:26:19;20.90;99.90
13310;DHT22;6723;48.256;16.402;2022-07-29T04:28:45;21.00;99.90
13310;DHT22;6723;48.256;16.402;2022-07-29T04:31:12;21.00;99.90
13310;DHT22;6723;48.256;16.402;2022-07-29T04:33:39;21.10;99.90
13310;DHT22;6723;48.256;16.402;2022-07-29T04:36:04;21.20;99.90
13310;DHT22;6723;48.256;16.402;2022-07-29T04:38:31;21.20;99.90
13310;DHT22;6723;48.256;16.402;2022-07-29T04:40:56;21.30;99.90
13310;DHT22;6723;48.256;16.402;2022-07-29T04:43:22;21.50;99.90
13310;DHT22;6723;48.256;16.402;2022-07-29T04:45:48;21.60;99.90
13310;DHT22;6723;48.256;16.402;2022-07-29T04:48:14;21.70;99.90
13310;DHT22;6723;48.256;16.402;2022-07-29T04:50:40;21.80;99.90
13310;DHT22;6723;48.256;16.402;2022-07-29T04:53:06;21.90;99.90
13310;DHT22;6723;48.256;16.402;2022-07-29T04:55:33;22.00;99.90
13310;DHT22;6723;48.256;16.402;2022-07-29T04:57:59;22.00;99.90
13310;DHT22;6723;48.256;16.402;2022-07-29T05:00:25;22.20;99.90
13310;DHT22;6723;48.256;16.402;2022-07-29T05:02:51;22.40;99.90
13310;DHT22;6723;48.256;16.402;2022-07-29T05:05:17;22.50;99.90
13310;DHT22;6723;48.256;16.402;2022-07-29T05:07:43;22.60;99.90
13310;DHT22;6723;48.256;16.402;2022-07-29T05:10:08;22.70;99.90
13310;DHT22;6723;48.256;16.402;2022-07-29T05:12:34;22.80;99.90
13310;DHT22;6723;48.256;16.402;2022-07-29T05:15:00;22.90;99.90
13310;DHT22;6723;48.256;16.402;2022-07-29T05:17:26;23.00;99.90
13310;DHT22;6723;48.256;16.402;2022-07-29T05:19:53;23.10;99.90
13310;DHT22;6723;48.256;16.402;2022-07-29T05:22:19;23.20;99.90
13310;DHT22;6723;48.256;16.402;2022-07-29T05:24:46;23.30;99.90
13310;DHT22;6723;48.256;16.402;2022-07-29T05:27:15;23.40;99.90
13310;DHT22;6723;48.256;16.402;2022-07-29T05:29:41;23.60;99.90
13310;DHT22;6723;48.256;16.402;2022-07-29T05:32:07;23.70;99.80
13310;DHT22;6723;48.256;16.402;2022-07-29T05:34:33;23.80;99.70
13310;DHT22;6723;48.256;16.402;2022-07-29T05:36:58;24.10;99.50
13310;DHT22;6723;48.256;16.402;2022-07-29T05:39:24;24.10;98.70
13310;DHT22;6723;48.256;16.402;2022-07-29T05:41:50;24.20;98.40
13310;DHT22;6723;48.256;16.402;2022-07-29T05:44:16;24.20;98.00
13310;DHT22;6723;48.256;16.402;2022-07-29T05:46:41;24.30;97.70
13310;DHT22;6723;48.256;16.402;2022-07-29T05:49:07;24.50;97.80
13310;DHT22;6723;48.256;16.402;2022-07-29T05:51:33;24.50;97.10
13310;DHT22;6723;48.256;16.402;2022-07-29T05:53:59;24.50;96.90
13310;DHT22;6723;48.256;16.402;2022-07-29T05:56:25;24.40;96.80
13310;DHT22;6723;48.256;16.402;2022-07-29T05:58:52;24.40;97.20
13310;DHT22;6723;48.256;16.402;2022-07-29T06:01:17;24.50;96.70
13310;DHT22;6723;48.256;16.402;2022-07-29T06:03:43;24.60;96.80
13310;DHT22;6723;48.256;16.402;2022-07-29T06:06:09;25.00;96.90
13310;DHT22;6723;48.256;16.402;2022-07-29T06:08:36;25.30;96.50
13310;DHT22;6723;48.256;16.402;2022-07-29T06:11:03;25.60;96.20
13310;DHT22;6723;48.256;16.402;2022-07-29T06:13:29;25.80;95.60
13310;DHT22;6723;48.256;16.402;2022-07-29T06:15:55;26.10;95.00
13310;DHT22;6723;48.256;16.402;2022-07-29T06:18:21;26.50;94.30
13310;DHT22;6723;48.256;16.402;2022-07-29T06:20:52;26.70;93.70
13310;DHT22;6723;48.256;16.402;2022-07-29T06:23:20;26.90;93.70
13310;DHT22;6723;48.256;16.402;2022-07-29T06:25:46;27.10;92.90
13310;DHT22;6723;48.256;16.402;2022-07-29T06:28:12;27.10;93.00
13310;DHT22;6723;48.256;16.402;2022-07-29T06:30:39;27.10;92.80
13310;DHT22;6723;48.256;16.402;2022-07-29T06:33:05;27.20;93.00
13310;DHT22;6723;48.256;16.402;2022-07-29T06:35:33;27.30;92.80
13310;DHT22;6723;48.256;16.402;2022-07-29T06:38:01;27.30;93.10
13310;DHT22;6723;48.256;16.402;2022-07-29T06:40:27;27.30;92.10
13310;DHT22;6723;48.256;16.402;2022-07-29T06:43:11;27.40;92.20
13310;DHT22;6723;48.256;16.402;2022-07-29T06:45:37;27.40;92.20
13310;DHT22;6723;48.256;16.402;2022-07-29T06:48:06;27.40;92.00
13310;DHT22;6723;48.256;16.402;2022-07-29T06:50:32;27.40;91.70
13310;DHT22;6723;48.256;16.402;2022-07-29T06:52:57;27.20;92.00
13310;DHT22;6723;48.256;16.402;2022-07-29T06:55:23;27.30;92.00
13310;DHT22;6723;48.256;16.402;2022-07-29T06:57:50;27.20;92.00
13310;DHT22;6723;48.256;16.402;2022-07-29T07:00:16;27.20;92.10
13310;DHT22;6723;48.256;16.402;2022-07-29T07:02:41;27.20;92.70
13310;DHT22;6723;48.256;16.402;2022-07-29T07:05:07;27.20;92.30
13310;DHT22;6723;48.256;16.402;2022-07-29T07:07:33;27.10;92.00
13310;DHT22;6723;48.256;16.402;2022-07-29T07:10:23;27.00;92.50
13310;DHT22;6723;48.256;16.402;2022-07-29T07:12:48;27.00;92.50
13310;DHT22;6723;48.256;16.402;2022-07-29T07:15:14;27.00;92.30
13310;DHT22;6723;48.256;16.402;2022-07-29T07:17:40;26.80;92.10
13310;DHT22;6723;48.256;16.402;2022-07-29T07:20:20;26.80;92.30
13310;DHT22;6723;48.256;16.402;2022-07-29T07:22:45;26.30;92.00
13310;DHT22;6723;48.256;16.402;2022-07-29T07:25:11;26.50;92.70
13310;DHT22;6723;48.256;16.402;2022-07-29T07:27:37;26.40;92.30
13310;DHT22;6723;48.256;16.402;2022-07-29T07:30:05;26.40;92.90
13310;DHT22;6723;48.256;16.402;2022-07-29T07:32:35;26.50;92.80
13310;DHT22;6723;48.256;16.402;2022-07-29T07:35:01;26.50;92.90
13310;DHT22;6723;48.256;16.402;2022-07-29T07:37:27;26.60;93.10
13310;DHT22;6723;48.256;16.402;2022-07-29T07:39:53;26.70;93.40
13310;DHT22;6723;48.256;16.402;2022-07-29T07:42:19;26.80;93.20
13310;DHT22;6723;48.256;16.402;2022-07-29T07:44:45;26.90;92.70
13310;DHT22;6723;48.256;16.402;2022-07-29T07:47:12;27.00;92.90
13310;DHT22;6723;48.256;16.402;2022-07-29T07:49:38;27.10;92.70
13310;DHT22;6723;48.256;16.402;2022-07-29T07:52:04;27.20;92.70
13310;DHT22;6723;48.256;16.402;2022-07-29T07:54:30;27.40;92.50
13310;DHT22;6723;48.256;16.402;2022-07-29T07:56:56;27.60;92.00
13310;DHT22;6723;48.256;16.402;2022-07-29T07:59:22;27.90;91.80
13310;DHT22;6723;48.256;16.402;2022-07-29T08:01:49;28.30;91.40
13310;DHT22;6723;48.256;16.402;2022-07-29T08:04:15;28.70;90.80
13310;DHT22;6723;48.256;16.402;2022-07-29T08:06:41;29.10;90.30
13310;DHT22;6723;48.256;16.402;2022-07-29T08:09:07;29.40;89.20
13310;DHT22;6723;48.256;16.402;2022-07-29T08:11:32;29.50;88.80
13310;DHT22;6723;48.256;16.402;2022-07-29T08:13:58;29.60;88.80
13310;DHT22;6723;48.256;16.402;2022-07-29T08:16:27;29.90;86.90
13310;DHT22;6723;48.256;16.402;2022-07-29T08:18:52;30.00;86.00
13310;DHT22;6723;48.256;16.402;2022-07-29T08:21:22;30.20;84.90
13310;DHT22;6723;48.256;16.402;2022-07-29T08:23:50;31.00;84.40
13310;DHT22;6723;48.256;16.402;2022-07-29T08:26:18;31.80;81.30
13310;DHT22;6723;48.256;16.402;2022-07-29T08:28:45;32.40;79.20
13310;DHT22;6723;48.256;16.402;2022-07-29T08:31:14;32.80;77.40
13310;DHT22;6723;48.256;16.402;2022-07-29T08:33:40;33.90;76.70
13310;DHT22;6723;48.256;16.402;2022-07-29T08:36:07;35.30;73.50
13310;DHT22;6723;48.256;16.402;2022-07-29T08:38:33;36.10;70.10
13310;DHT22;6723;48.256;16.402;2022-07-29T08:41:01;36.70;67.40
13310;DHT22;6723;48.256;16.402;2022-07-29T08:43:28;37.10;65.60
13310;DHT22;6723;48.256;16.402;2022-07-29T08:45:54;37.50;63.40
13310;DHT22;6723;48.256;16.402;2022-07-29T08:48:22;37.90;62.20
13310;DHT22;6723;48.256;16.402;2022-07-29T08:50:53;38.30;58.90
13310;DHT22;6723;48.256;16.402;2022-07-29T08:53:21;38.50;58.70
13310;DHT22;6723;48.256;16.402;2022-07-29T08:55:49;38.50;57.40
13310;DHT22;6723;48.256;16.402;2022-07-29T08:58:16;38.20;56.80
13310;DHT22;6723;48.256;16.402;2022-07-29T09:00:45;37.80;58.10
13310;DHT22;6723;48.256;16.402;2022-07-29T09:03:18;37.20;58.10
13310;DHT22;6723;48.256;16.402;2022-07-29T09:05:48;36.50;58.90
13310;DHT22;6723;48.256;16.402;2022-07-29T09:08:15;36.00;60.40
13310;DHT22;6723;48.256;16.402;2022-07-29T09:10:42;36.00;60.90
13310;DHT22;6723;48.256;16.402;2022-07-29T09:13:08;36.70;59.90
13310;DHT22;6723;48.256;16.402;2022-07-29T09:15:34;36.90;59.10
13310;DHT22;6723;48.256;16.402;2022-07-29T09:17:59;36.70;58.80
13310;DHT22;6723;48.256;16.402;2022-07-29T09:20:26;36.10;59.50
13310;DHT22;6723;48.256;16.402;2022-07-29T09:23:12;35.40;60.30
13310;DHT22;6723;48.256;16.402;2022-07-29T09:25:39;34.90;61.80
13310;DHT22;6723;48.256;16.402;2022-07-29T09:28:14;34.50;62.60
13310;DHT22;6723;48.256;16.402;2022-07-29T09:30:56;34.20;63.60
13310;DHT22;6723;48.256;16.402;2022-07-29T09:33:23;33.90;65.00
13310;DHT22;6723;48.256;16.402;2022-07-29T09:36:05;33.70;65.40
13310;DHT22;6723;48.256;16.402;2022-07-29T09:38:31;33.70;64.70
13310;DHT22;6723;48.256;16.402;2022-07-29T09:40:59;33.80;64.90
13310;DHT22;6723;48.256;16.402;2022-07-29T09:43:26;33.90;64.10
13310;DHT22;6723;48.256;16.402;2022-07-29T09:45:52;34.00;64.70
13310;DHT22;6723;48.256;16.402;2022-07-29T09:48:22;34.40;64.10
13310;DHT22;6723;48.256;16.402;2022-07-29T09:50:49;34.80;62.90
13310;DHT22;6723;48.256;16.402;2022-07-29T09:53:36;35.30;61.20
13310;DHT22;6723;48.256;16.402;2022-07-29T09:56:03;35.70;60.40
13310;DHT22;6723;48.256;16.402;2022-07-29T09:58:30;35.60;59.60
13310;DHT22;6723;48.256;16.402;2022-07-29T10:00:59;35.70;60.10
13310;DHT22;6723;48.256;16.402;2022-07-29T10:03:25;36.10;59.60
13310;DHT22;6723;48.256;16.402;2022-07-29T10:06:05;36.10;58.20
13310;DHT22;6723;48.256;16.402;2022-07-29T10:08:31;36.10;58.40
13310;DHT22;6723;48.256;16.402;2022-07-29T10:11:14;35.70;58.70
13310;DHT22;6723;48.256;16.402;2022-07-29T10:13:41;35.30;58.50
13310;DHT22;6723;48.256;16.402;2022-07-29T10:16:07;35.30;59.30
13310;DHT22;6723;48.256;16.402;2022-07-29T10:18:34;35.30;58.50
13310;DHT22;6723;48.256;16.402;2022-07-29T10:21:01;35.30;58.70
13310;DHT22;6723;48.256;16.402;2022-07-29T10:23:30;35.40;58.90
13310;DHT22;6723;48.256;16.402;2022-07-29T10:25:56;35.50;58.00
13310;DHT22;6723;48.256;16.402;2022-07-29T10:28:22;35.90;58.30
13310;DHT22;6723;48.256;16.402;2022-07-29T10:30:51;36.20;57.80
13310;DHT22;6723;48.256;16.402;2022-07-29T10:33:37;36.40;57.10
13310;DHT22;6723;48.256;16.402;2022-07-29T10:44:30;37.70;55.10
13310;DHT22;6723;48.256;16.402;2022-07-29T10:46:56;37.50;55.40
13310;DHT22;6723;48.256;16.402;2022-07-29T10:49:24;37.30;56.00
13310;DHT22;6723;48.256;16.402;2022-07-29T10:54:39;37.50;54.70
13310;DHT22;6723;48.256;16.402;2022-07-29T11:05:18;38.10;53.00
13310;DHT22;6723;48.256;16.402;2022-07-29T11:10:37;37.30;53.20
13310;DHT22;6723;48.256;16.402;2022-07-29T11:13:03;36.60;53.40
13310;DHT22;6723;48.256;16.402;2022-07-29T11:15:53;35.70;55.00
13310;DHT22;6723;48.256;16.402;2022-07-29T11:18:20;35.10;54.90
13310;DHT22;6723;48.256;16.402;2022-07-29T11:20:50;34.60;55.40
13310;DHT22;6723;48.256;16.402;2022-07-29T11:25:46;33.80;57.40
13310;DHT22;6723;48.256;16.402;2022-07-29T11:28:32;33.60;58.10
13310;DHT22;6723;48.256;16.402;2022-07-29T11:30:59;33.60;59.00
13310;DHT22;6723;48.256;16.402;2022-07-29T11:33:30;33.70;59.00
13310;DHT22;6723;48.256;16.402;2022-07-29T11:36:15;33.60;59.00
13310;DHT22;6723;48.256;16.402;2022-07-29T11:38:41;33.90;59.20
13310;DHT22;6723;48.256;16.402;2022-07-29T11:41:27;34.10;59.00
13310;DHT22;6723;48.256;16.402;2022-07-29T11:43:56;34.30;59.00
13310;DHT22;6723;48.256;16.402;2022-07-29T11:49:22;34.70;58.20
13310;DHT22;6723;48.256;16.402;2022-07-29T11:51:56;34.70;58.40
13310;DHT22;6723;48.256;16.402;2022-07-29T11:54:30;34.90;58.40
13310;DHT22;6723;48.256;16.402;2022-07-29T11:56:57;35.20;58.40
13310;DHT22;6723;48.256;16.402;2022-07-29T11:59:24;35.90;58.30
13310;DHT22;6723;48.256;16.402;2022-07-29T12:01:55;36.30;57.30
13310;DHT22;6723;48.256;16.402;2022-07-29T12:04:21;36.90;57.10
13310;DHT22;6723;48.256;16.402;2022-07-29T12:06:50;37.10;55.70
13310;DHT22;6723;48.256;16.402;2022-07-29T12:09:17;37.10;55.90
13310;DHT22;6723;48.256;16.402;2022-07-29T12:11:43;37.10;56.10
13310;DHT22;6723;48.256;16.402;2022-07-29T12:14:09;36.90;55.50
13310;DHT22;6723;48.256;16.402;2022-07-29T12:16:35;36.60;56.20
13310;DHT22;6723;48.256;16.402;2022-07-29T12:19:03;36.50;56.10
13310;DHT22;6723;48.256;16.402;2022-07-29T12:21:50;36.40;56.40
13310;DHT22;6723;48.256;16.402;2022-07-29T12:24:18;35.90;56.50
13310;DHT22;6723;48.256;16.402;2022-07-29T12:26:54;35.60;56.60
13310;DHT22;6723;48.256;16.402;2022-07-29T12:29:21;35.00;57.90
13310;DHT22;6723;48.256;16.402;2022-07-29T12:31:52;34.60;58.30
13310;DHT22;6723;48.256;16.402;2022-07-29T12:34:22;34.50;58.70
13310;DHT22;6723;48.256;16.402;2022-07-29T12:36:49;34.40;59.20
13310;DHT22;6723;48.256;16.402;2022-07-29T12:39:16;34.10;59.30
13310;DHT22;6723;48.256;16.402;2022-07-29T12:41:43;33.90;60.20
13310;DHT22;6723;48.256;16.402;2022-07-29T12:44:10;33.80;60.40
13310;DHT22;6723;48.256;16.402;2022-07-29T12:46:36;33.90;60.10
13310;DHT22;6723;48.256;16.402;2022-07-29T12:49:03;33.80;60.70
13310;DHT22;6723;48.256;16.402;2022-07-29T12:51:39;33.70;60.40
13310;DHT22;6723;48.256;16.402;2022-07-29T12:54:13;33.40;60.90
13310;DHT22;6723;48.256;16.402;2022-07-29T12:56:41;33.00;61.30
13310;DHT22;6723;48.256;16.402;2022-07-29T12:59:16;32.70;62.60
13310;DHT22;6723;48.256;16.402;2022-07-29T13:01:42;32.50;64.10
13310;DHT22;6723;48.256;16.402;2022-07-29T13:07:24;32.20;64.20
13310;DHT22;6723;48.256;16.402;2022-07-29T13:09:51;31.80;64.10
13310;DHT22;6723;48.256;16.402;2022-07-29T13:12:17;31.60;65.10
13310;DHT22;6723;48.256;16.402;2022-07-29T13:14:47;31.60;65.80
13310;DHT22;6723;48.256;16.402;2022-07-29T13:17:22;31.60;66.40
13310;DHT22;6723;48.256;16.402;2022-07-29T13:22:19;31.00;68.90
13310;DHT22;6723;48.256;16.402;2022-07-29T13:24:59;30.70;69.60
13310;DHT22;6723;48.256;16.402;2022-07-29T13:27:32;30.30;69.80
13310;DHT22;6723;48.256;16.402;2022-07-29T13:30:00;30.10;70.20
13310;DHT22;6723;48.256;16.402;2022-07-29T13:32:28;30.00;70.40
13310;DHT22;6723;48.256;16.402;2022-07-29T13:34:58;29.80;70.60
13310;DHT22;6723;48.256;16.402;2022-07-29T13:37:25;29.50;71.00
13310;DHT22;6723;48.256;16.402;2022-07-29T13:39:51;29.50;71.50
13310;DHT22;6723;48.256;16.402;2022-07-29T13:42:19;29.30;71.70
13310;DHT22;6723;48.256;16.402;2022-07-29T13:44:45;29.20;72.70
13310;DHT22;6723;48.256;16.402;2022-07-29T13:47:10;29.10;73.40
13310;DHT22;6723;48.256;16.402;2022-07-29T13:49:36;29.10;74.90
13310;DHT22;6723;48.256;16.402;2022-07-29T13:52:02;28.90;77.90
13310;DHT22;6723;48.256;16.402;2022-07-29T13:54:28;28.60;81.10
13310;DHT22;6723;48.256;16.402;2022-07-29T13:56:54;28.40;83.40
13310;DHT22;6723;48.256;16.402;2022-07-29T13:59:20;28.20;85.80
13310;DHT22;6723;48.256;16.402;2022-07-29T14:01:46;28.00;87.10
13310;DHT22;6723;48.256;16.402;2022-07-29T14:04:12;27.80;88.50
13310;DHT22;6723;48.256;16.402;2022-07-29T14:06:38;27.50;90.00
13310;DHT22;6723;48.256;16.402;2022-07-29T14:09:04;27.40;91.70
13310;DHT22;6723;48.256;16.402;2022-07-29T14:11:35;27.20;93.30
13310;DHT22;6723;48.256;16.402;2022-07-29T14:14:01;27.00;94.30
13310;DHT22;6723;48.256;16.402;2022-07-29T14:16:27;26.80;95.30
13310;DHT22;6723;48.256;16.402;2022-07-29T14:18:52;26.40;99.30
13310;DHT22;6723;48.256;16.402;2022-07-29T14:21:18;26.20;99.90
13310;DHT22;6723;48.256;16.402;2022-07-29T14:23:44;26.00;99.90
13310;DHT22;6723;48.256;16.402;2022-07-29T14:26:10;25.70;99.90
13310;DHT22;6723;48.256;16.402;2022-07-29T14:28:36;25.30;99.90
13310;DHT22;6723;48.256;16.402;2022-07-29T14:31:02;24.90;99.90
13310;DHT22;6723;48.256;16.402;2022-07-29T14:33:28;24.60;99.90
13310;DHT22;6723;48.256;16.402;2022-07-29T14:35:54;24.40;99.90
13310;DHT22;6723;48.256;16.402;2022-07-29T14:38:20;24.20;99.90
13310;DHT22;6723;48.256;16.402;2022-07-29T14:40:46;24.00;99.90
13310;DHT22;6723;48.256;16.402;2022-07-29T14:43:13;23.80;99.90
13310;DHT22;6723;48.256;16.402;2022-07-29T14:45:40;23.70;99.90
13310;DHT22;6723;48.256;16.402;2022-07-29T14:48:06;23.60;99.90
13310;DHT22;6723;48.256;16.402;2022-07-29T14:50:32;23.60;99.90
13310;DHT22;6723;48.256;16.402;2022-07-29T14:53:00;23.40;99.90
13310;DHT22;6723;48.256;16.402;2022-07-29T14:55:26;23.40;99.90
13310;DHT22;6723;48.256;16.402;2022-07-29T14:57:52;23.30;99.90
13310;DHT22;6723;48.256;16.402;2022-07-29T15:00:19;23.20;99.90
13310;DHT22;6723;48.256;16.402;2022-07-29T15:02:47;23.10;99.90
13310;DHT22;6723;48.256;16.402;2022-07-29T15:05:13;23.20;99.90
13310;DHT22;6723;48.256;16.402;2022-07-29T15:07:38;23.30;99.90
13310;DHT22;6723;48.256;16.402;2022-07-29T15:10:04;23.40;99.90
13310;DHT22;6723;48.256;16.402;2022-07-29T15:12:31;23.40;99.90
13310;DHT22;6723;48.256;16.402;2022-07-29T15:14:57;23.40;99.90
13310;DHT22;6723;48.256;16.402;2022-07-29T15:17:23;23.50;99.90
13310;DHT22;6723;48.256;16.402;2022-07-29T15:19:48;23.60;99.90
13310;DHT22;6723;48.256;16.402;2022-07-29T15:22:14;23.60;99.90
13310;DHT22;6723;48.256;16.402;2022-07-29T15:24:40;23.70;99.90
13310;DHT22;6723;48.256;16.402;2022-07-29T15:27:06;23.60;99.90
13310;DHT22;6723;48.256;16.402;2022-07-29T15:29:32;23.70;99.90
13310;DHT22;6723;48.256;16.402;2022-07-29T15:31:58;23.70;99.90
13310;DHT22;6723;48.256;16.402;2022-07-29T15:34:24;23.70;99.90
13310;DHT22;6723;48.256;16.402;2022-07-29T15:36:51;23.60;99.90
13310;DHT22;6723;48.256;16.402;2022-07-29T15:39:17;23.60;99.90
13310;DHT22;6723;48.256;16.402;2022-07-29T15:41:43;23.70;99.90
13310;DHT22;6723;48.256;16.402;2022-07-29T15:44:09;23.60;99.90
13310;DHT22;6723;48.256;16.402;2022-07-29T15:46:35;23.50;99.90
13310;DHT22;6723;48.256;16.402;2022-07-29T15:49:19;23.40;99.90
13310;DHT22;6723;48.256;16.402;2022-07-29T15:51:45;23.40;99.90
13310;DHT22;6723;48.256;16.402;2022-07-29T15:57:01;23.50;99.90
13310;DHT22;6723;48.256;16.402;2022-07-29T15:59:27;23.40;99.90
13310;DHT22;6723;48.256;16.402;2022-07-29T16:01:53;23.40;99.90
13310;DHT22;6723;48.256;16.402;2022-07-29T16:04:19;23.40;99.90
13310;DHT22;6723;48.256;16.402;2022-07-29T16:06:46;23.50;99.90
13310;DHT22;6723;48.256;16.402;2022-07-29T16:09:12;23.60;99.90
13310;DHT22;6723;48.256;16.402;2022-07-29T16:11:40;23.60;99.90
13310;DHT22;6723;48.256;16.402;2022-07-29T16:14:06;23.70;99.90
13310;DHT22;6723;48.256;16.402;2022-07-29T16:16:32;23.80;99.90
13310;DHT22;6723;48.256;16.402;2022-07-29T16:18:58;23.80;99.90
13310;DHT22;6723;48.256;16.402;2022-07-29T16:21:24;23.90;99.90
13310;DHT22;6723;48.256;16.402;2022-07-29T16:24:03;24.00;99.90
13310;DHT22;6723;48.256;16.402;2022-07-29T16:26:29;24.10;99.90